Página principal
METAR-TAF:

METAR-TAF

Aeroportos :

Tan-Tan, Marrocos

latitude: 28-26-54N, longitude: 11-09-41W, altura: 199 m

Observação actual do tempo

O boletim foi feito há 38 minutos, às 15:00 UTC
Vento 14 kt de noroeste
Temperatura 29°C
Humidade 33%
Pressão 1014 hPa
Visibilidade: 8000 m
Poucas nuvensa uma altura de 300 ft

METAR: GMAT 121500Z 32014KT 8000 FEW003 29/11 Q1014 NOSIG

Hora: 15:38 (15:38 UTC)


TAF: em falta

Observações e previsões do tempo de mais de 4000 aeroportos (mensagens METAR e TAF).

As estações disponíveis são os pontos amarelos e vermelhos sobre o mapa.

Mova o rato sobre o mapa para ver o nome da estação.

Depois clique no ponto para visualizar as observações e previsões meteorológicas.

Para alterar o mapa : clique nos botões verdes com uma cruz preta para aumentar o zoom; no botão verde com uma pitada de zoom; ou nas setas verdes para mapas adjacentes.


METAR-TAF: